Terminal Aerodrome Forecast
Issued by NWS

Home | Current Version | Previous Version | Text Only | Print | Product List | Glossary Off
Versions: 1 2 3 4 5 6 7 8 9 10 11 12 13 14 15 16

000
FTUS43 KGRB 091730
TAFCWA
TAF
KCWA 091730Z 0918/1018 30007KT P6SM SCT015 BKN050
      TEMPO 0918/0922 -SN BKN014 BKN022
     FM092200 28006KT P6SM -SN SCT020 BKN035
     FM101500 29006KT P6SM FEW020 SCT040=

USA.gov is the U.S. government's official web portal to all federal, state and local government web resources and services.